Time;durP1;ratioP1;P1;durP2;ratioP2;P2;SDS_P1;SDS_P2;PMS_P1;PMS_P2;Temp;Humidity;BMP_temperature;BMP_pressure;BME280_temperature;BME280_humidity;BME280_pressure;Samples;Min_cycle;Max_cycle;Signal;HPM_P1;HPM_P2
2021/01/29 00:00:50;;;;;;;49.42;24.20;;;2.30;99.20;;;;;;5047414;28;20034;-82
2021/01/29 00:03:18;;;;;;;51.67;23.08;;;2.40;99.30;;;;;;5075964;28;20049;-81
2021/01/29 00:05:55;;;;;;;59.42;25.73;;;2.30;99.30;;;;;;5081618;28;20052;-81
2021/01/29 00:08:22;;;;;;;51.13;26.10;;;2.30;99.30;;;;;;5061470;28;20100;-81
2021/01/29 00:10:50;;;;;;;52.38;25.05;;;2.30;99.30;;;;;;5044132;28;20041;-81
2021/01/29 00:13:16;;;;;;;48.80;22.52;;;2.30;99.30;;;;;;5038918;28;20040;-81
2021/01/29 00:15:43;;;;;;;65.38;27.73;;;2.40;99.10;;;;;;5058711;28;20040;-81
2021/01/29 00:18:10;;;;;;;69.88;28.35;;;2.30;99.30;;;;;;5058110;28;20385;-81
2021/01/29 00:20:36;;;;;;;67.28;28.88;;;2.40;99.70;;;;;;5046203;28;20037;-81
2021/01/29 00:23:02;;;;;;;71.15;29.50;;;2.40;99.50;;;;;;5065233;28;20041;-81
2021/01/29 00:25:33;;;;;;;60.20;27.20;;;2.40;99.40;;;;;;5075537;28;20159;-81
2021/01/29 00:28:00;;;;;;;65.80;29.30;;;2.30;99.50;;;;;;5043434;28;20044;-81
2021/01/29 00:30:28;;;;;;;70.22;30.50;;;2.30;99.40;;;;;;5050310;28;20049;-81
2021/01/29 00:32:54;;;;;;;57.85;27.67;;;2.40;99.50;;;;;;5078414;28;20112;-81
2021/01/29 00:35:22;;;;;;;64.60;27.95;;;2.40;99.50;;;;;;5076186;28;20045;-82
2021/01/29 00:37:48;;;;;;;72.07;30.83;;;2.40;99.50;;;;;;5053329;28;20063;-82
2021/01/29 00:40:15;;;;;;;69.95;29.75;;;2.40;99.50;;;;;;5051679;28;20111;-81
2021/01/29 00:42:41;;;;;;;72.30;32.17;;;2.40;99.50;;;;;;5048225;28;20053;-81
2021/01/29 00:45:09;;;;;;;61.70;28.42;;;2.30;99.50;;;;;;5043018;28;20049;-81
2021/01/29 00:47:36;;;;;;;59.17;29.17;;;2.40;99.60;;;;;;5042642;28;20117;-81
2021/01/29 00:50:05;;;;;;;65.30;30.67;;;2.40;99.50;;;;;;5035116;28;20045;-81
2021/01/29 00:52:30;;;;;;;65.00;30.27;;;2.40;99.60;;;;;;5061859;28;20048;-82
2021/01/29 00:54:56;;;;;;;77.03;33.25;;;2.40;99.60;;;;;;5074364;28;20045;-81
2021/01/29 00:57:22;;;;;;;54.65;27.80;;;2.40;99.60;;;;;;5065553;28;20048;-81
2021/01/29 00:59:48;;;;;;;60.13;29.17;;;2.40;99.50;;;;;;5081385;28;20059;-81
2021/01/29 01:02:14;;;;;;;65.00;31.75;;;2.40;99.50;;;;;;5046104;28;20041;-81
2021/01/29 01:04:40;;;;;;;66.10;29.75;;;2.40;99.50;;;;;;5041633;28;20044;-82
2021/01/29 01:07:06;;;;;;;65.38;30.48;;;2.50;99.50;;;;;;5042454;28;20122;-82
2021/01/29 01:09:32;;;;;;;74.10;31.63;;;2.40;99.50;;;;;;5065595;28;20037;-82
2021/01/29 01:11:57;;;;;;;61.88;29.65;;;2.40;99.60;;;;;;5046727;28;20120;-81
2021/01/29 01:14:23;;;;;;;71.88;30.55;;;2.40;99.50;;;;;;5076049;28;20064;-82
2021/01/29 01:16:50;;;;;;;79.35;34.33;;;2.40;99.80;;;;;;5053754;28;20049;-81
2021/01/29 01:19:16;;;;;;;68.30;31.08;;;2.40;99.50;;;;;;5036014;28;20065;-81
2021/01/29 01:21:42;;;;;;;80.78;34.35;;;2.40;99.50;;;;;;5054055;28;20030;-81
2021/01/29 01:24:08;;;;;;;91.30;35.42;;;2.40;99.60;;;;;;5072527;28;20124;-81
2021/01/29 01:26:33;;;;;;;90.63;36.58;;;2.40;99.60;;;;;;5063924;28;20436;-82
2021/01/29 01:29:27;;;;;;;94.55;36.45;;;2.50;99.70;;;;;;5055698;28;20060;-81
2021/01/29 01:31:53;;;;;;;92.05;37.35;;;2.40;99.70;;;;;;5036862;28;20490;-81
2021/01/29 01:34:19;;;;;;;94.57;35.55;;;2.40;99.70;;;;;;5064861;28;20044;-81
2021/01/29 01:36:44;;;;;;;86.82;35.53;;;2.40;99.70;;;;;;5029332;28;20132;-81
2021/01/29 01:39:10;;;;;;;86.72;34.35;;;2.40;99.80;;;;;;5054019;28;20041;-81
2021/01/29 01:41:36;;;;;;;88.47;34.72;;;2.40;99.80;;;;;;5044401;28;20033;-81
2021/01/29 01:44:24;;;;;;;99.40;35.45;;;2.40;99.80;;;;;;5050641;28;20049;-81
2021/01/29 01:46:53;;;;;;;80.57;34.17;;;2.40;99.80;;;;;;5049993;28;20037;-81
2021/01/29 01:49:21;;;;;;;78.10;31.35;;;2.40;99.90;;;;;;5067081;28;20057;-81
2021/01/29 01:52:05;;;;;;;61.20;27.92;;;2.40;99.90;;;;;;5059515;28;20089;-81
2021/01/29 01:54:36;;;;;;;92.32;33.33;;;2.40;99.90;;;;;;5047776;28;20056;-81
2021/01/29 01:57:04;;;;;;;86.63;33.40;;;2.40;99.90;;;;;;5032496;28;20041;-82
2021/01/29 01:59:41;;;;;;;79.05;30.88;;;2.40;99.90;;;;;;5039423;28;20048;-81
2021/01/29 02:02:09;;;;;;;77.00;30.33;;;2.40;99.90;;;;;;5050560;28;20028;-81
2021/01/29 02:04:40;;;;;;;72.10;30.42;;;2.40;99.90;;;;;;5034025;28;20042;-81
2021/01/29 02:07:25;;;;;;;85.85;33.15;;;2.40;99.90;;;;;;5069832;28;20053;-81
2021/01/29 02:09:50;;;;;;;68.63;29.30;;;2.40;99.90;;;;;;5068338;28;20057;-81
2021/01/29 02:12:18;;;;;;;75.00;30.38;;;2.40;99.90;;;;;;5057128;28;20099;-81
2021/01/29 02:14:46;;;;;;;83.10;33.33;;;2.40;99.90;;;;;;5046235;28;20049;-81
2021/01/29 02:17:30;;;;;;;72.70;29.70;;;2.40;99.90;;;;;;5068940;28;20053;-81
2021/01/29 02:20:18;;;;;;;78.77;32.37;;;2.40;99.90;;;;;;5049869;28;20072;-81
2021/01/29 02:23:08;;;;;;;83.95;32.30;;;2.40;99.90;;;;;;5052429;28;20109;-81
2021/01/29 02:26:19;;;;;;;71.68;30.02;;;2.40;99.90;;;;;;5067883;28;20580;-81
2021/01/29 02:29:22;;;;;;;72.07;30.55;;;2.40;99.90;;;;;;5043489;28;20076;-81
2021/01/29 02:31:51;;;;;;;91.05;33.80;;;2.40;99.90;;;;;;5076548;28;20057;-81
2021/01/29 02:35:02;;;;;;;80.88;32.10;;;2.50;99.90;;;;;;5030286;28;20044;-81
2021/01/29 02:38:00;;;;;;;76.00;32.10;;;2.50;99.90;;;;;;4962966;28;20039;-81
2021/01/29 02:40:35;;;;;;;80.25;32.55;;;2.50;99.90;;;;;;4968545;28;20053;-81
2021/01/29 02:43:26;;;;;;;75.45;33.30;;;2.50;99.90;;;;;;4983836;28;20177;-81
2021/01/29 02:46:22;;;;;;;87.10;36.40;;;2.50;99.90;;;;;;4966868;28;20058;-82
2021/01/29 02:49:12;;;;;;;69.95;32.10;;;2.50;99.90;;;;;;4967692;28;20105;-82
2021/01/29 02:51:59;;;;;;;79.18;34.95;;;2.50;99.90;;;;;;4963432;28;20057;-82
2021/01/29 02:54:57;;;;;;;87.03;36.58;;;2.50;99.90;;;;;;4988419;28;20051;-82
2021/01/29 02:57:38;;;;;;;88.38;36.22;;;2.50;99.90;;;;;;4972960;28;20103;-81
2021/01/29 03:00:11;;;;;;;95.18;38.10;;;2.60;99.90;;;;;;4988813;28;20130;-81
2021/01/29 03:02:45;;;;;;;95.57;37.55;;;2.60;99.90;;;;;;4984306;28;20038;-82
2021/01/29 03:05:15;;;;;;;111.90;37.33;;;2.60;99.90;;;;;;4978281;28;20051;-81
2021/01/29 03:07:44;;;;;;;108.28;38.70;;;2.60;99.90;;;;;;4987446;28;20059;-81
2021/01/29 03:10:24;;;;;;;108.43;39.10;;;2.60;99.90;;;;;;4988790;28;20043;-81
2021/01/29 03:12:56;;;;;;;104.53;38.22;;;2.60;99.90;;;;;;4994841;28;20562;-81
2021/01/29 03:15:41;;;;;;;109.13;38.28;;;2.60;99.90;;;;;;5054587;28;20079;-83
2021/01/29 03:18:22;;;;;;;100.28;36.20;;;2.60;99.90;;;;;;5049002;28;20048;-82
2021/01/29 03:20:56;;;;;;;87.13;34.80;;;2.60;99.90;;;;;;5063055;28;20057;-82
2021/01/29 03:23:34;;;;;;;98.15;37.80;;;2.60;99.90;;;;;;5057323;28;20024;-82
2021/01/29 03:26:20;;;;;;;108.53;37.95;;;2.60;99.90;;;;;;5074994;28;20093;-82
2021/01/29 03:28:52;;;;;;;112.50;38.85;;;2.60;99.90;;;;;;5053596;28;20049;-82
2021/01/29 03:31:21;;;;;;;116.47;39.22;;;2.60;99.90;;;;;;5066823;28;20053;-82
2021/01/29 03:33:57;;;;;;;107.45;39.10;;;2.60;99.90;;;;;;5071732;28;20045;-82
2021/01/29 03:36:28;;;;;;;100.30;37.85;;;2.60;99.90;;;;;;5065089;28;20053;-82
2021/01/29 03:39:07;;;;;;;114.00;38.38;;;2.60;99.90;;;;;;5070768;28;20032;-82
2021/01/29 03:41:37;;;;;;;85.70;35.35;;;2.70;99.90;;;;;;5048356;28;20021;-82
2021/01/29 03:44:08;;;;;;;89.63;34.33;;;2.60;99.90;;;;;;5041515;28;20037;-82
2021/01/29 03:47:21;;;;;;;103.88;39.67;;;2.70;99.90;;;;;;5072773;28;20052;-82
2021/01/29 03:50:01;;;;;;;100.68;34.95;;;2.70;99.90;;;;;;5072278;28;20051;-82
2021/01/29 03:52:55;;;;;;;102.35;38.60;;;2.70;99.90;;;;;;5057221;28;20064;-82
2021/01/29 03:55:38;;;;;;;99.53;38.40;;;2.70;99.90;;;;;;5050467;28;20048;-82
2021/01/29 03:58:33;;;;;;;87.57;35.10;;;2.70;99.90;;;;;;5072522;28;20044;-82
2021/01/29 04:01:52;;;;;;;94.70;38.40;;;2.70;99.90;;;;;;5055578;28;20033;-83
2021/01/29 04:04:30;;;;;;;88.22;37.65;;;2.70;99.90;;;;;;5045738;28;20291;-82
2021/01/29 04:07:16;;;;;;;90.10;36.78;;;2.70;99.90;;;;;;5023237;28;20050;-82
2021/01/29 04:10:03;;;;;;;100.72;39.70;;;2.70;99.90;;;;;;5066898;28;20041;-81
2021/01/29 04:12:38;;;;;;;77.70;32.65;;;2.60;99.90;;;;;;5104854;28;20029;-81
2021/01/29 04:15:15;;;;;;;104.57;39.05;;;2.70;99.90;;;;;;5081772;28;20056;-81
2021/01/29 04:18:09;;;;;;;75.47;33.63;;;2.70;99.90;;;;;;5091949;28;20043;-82
2021/01/29 04:20:49;;;;;;;86.15;36.22;;;2.70;99.90;;;;;;5017916;28;20046;-81
2021/01/29 04:23:45;;;;;;;77.47;33.05;;;2.70;99.90;;;;;;5013415;28;20061;-81
2021/01/29 04:26:18;;;;;;;77.93;32.38;;;2.70;99.90;;;;;;5031388;28;20054;-82
2021/01/29 04:28:49;;;;;;;92.13;38.03;;;2.70;99.90;;;;;;5026109;28;20046;-82
2021/01/29 04:34:54;;;;;;;81.07;33.28;;;2.80;99.90;;;;;;4998400;28;20043;-82
2021/01/29 04:37:28;;;;;;;77.15;34.30;;;2.70;99.90;;;;;;4989946;28;20042;-81
2021/01/29 04:39:59;;;;;;;74.80;32.70;;;2.70;99.90;;;;;;4996244;28;20114;-82
2021/01/29 04:42:44;;;;;;;78.65;32.00;;;2.80;99.90;;;;;;5022490;28;20062;-82
2021/01/29 04:45:33;;;;;;;98.80;36.08;;;2.70;99.90;;;;;;4983109;28;20049;-83
2021/01/29 04:51:03;;;;;;;81.43;33.15;;;2.70;99.90;;;;;;5033520;28;20084;-81
2021/01/29 04:54:01;;;;;;;72.27;30.27;;;2.70;99.90;;;;;;5043461;28;20119;-81
2021/01/29 04:57:00;;;;;;;76.90;30.50;;;2.80;99.90;;;;;;5022043;28;20303;-81
2021/01/29 04:59:45;;;;;;;75.85;31.00;;;2.80;99.90;;;;;;5041199;28;20118;-80
2021/01/29 05:02:25;;;;;;;;;;;2.80;99.90;;;;;;5042235;28;20040;-80
2021/01/29 05:05:08;;;;;;;59.20;27.23;;;2.70;99.90;;;;;;5038256;28;19921;-80
2021/01/29 05:07:42;;;;;;;73.30;28.38;;;2.80;99.90;;;;;;5044820;28;20048;-80
2021/01/29 05:10:39;;;;;;;54.08;25.00;;;2.80;99.90;;;;;;5037718;28;20053;-80
2021/01/29 05:13:29;;;;;;;52.40;25.30;;;2.80;99.90;;;;;;5042213;28;20041;-80
2021/01/29 05:16:25;;;;;;;59.97;26.63;;;2.80;99.90;;;;;;5039163;28;20060;-81
2021/01/29 05:19:23;;;;;;;69.78;29.80;;;2.80;99.90;;;;;;5031214;28;20177;-81
2021/01/29 05:22:19;;;;;;;58.33;26.65;;;2.80;99.90;;;;;;5022573;28;20068;-81
2021/01/29 05:25:04;;;;;;;55.83;25.90;;;2.70;99.90;;;;;;5047226;28;20068;-81
2021/01/29 05:27:55;;;;;;;51.35;23.83;;;2.70;99.90;;;;;;5035675;28;20056;-80
2021/01/29 05:30:29;;;;;;;58.45;26.88;;;2.70;99.90;;;;;;5044415;28;20500;-80
2021/01/29 05:33:01;;;;;;;38.38;20.13;;;2.80;99.90;;;;;;5035374;28;20049;-80
2021/01/29 05:35:51;;;;;;;41.85;21.83;;;2.70;99.90;;;;;;5027620;28;20053;-82
2021/01/29 05:38:32;;;;;;;50.78;23.27;;;2.70;99.90;;;;;;5026763;28;20036;-82
2021/01/29 05:41:18;;;;;;;41.97;21.05;;;2.70;99.90;;;;;;5042699;28;20044;-81
2021/01/29 05:43:55;;;;;;;35.70;19.95;;;2.70;99.90;;;;;;5050984;28;20452;-82
2021/01/29 05:46:36;;;;;;;38.63;20.05;;;2.70;99.90;;;;;;5040350;28;20057;-81
2021/01/29 05:49:17;;;;;;;37.75;19.05;;;2.70;99.90;;;;;;5043030;28;20161;-81
2021/01/29 05:51:45;;;;;;;44.88;21.42;;;2.70;99.90;;;;;;5038540;28;20950;-81
2021/01/29 05:54:34;;;;;;;44.03;20.77;;;2.70;99.90;;;;;;5044693;28;20037;-81
2021/01/29 05:57:12;;;;;;;45.15;21.20;;;2.70;99.90;;;;;;5040955;28;20043;-81
2021/01/29 06:00:05;;;;;;;48.72;22.08;;;2.70;99.90;;;;;;5047805;28;20051;-81
2021/01/29 06:02:52;;;;;;;35.67;19.15;;;2.70;99.90;;;;;;5041995;28;20044;-81
2021/01/29 06:05:36;;;;;;;42.13;20.42;;;2.70;99.90;;;;;;5048196;28;20106;-81
2021/01/29 06:08:27;;;;;;;49.70;21.95;;;2.70;99.90;;;;;;5040758;28;20033;-81
2021/01/29 06:11:14;;;;;;;42.65;20.73;;;2.70;99.90;;;;;;5050267;28;20041;-82
2021/01/29 06:13:55;;;;;;;37.47;19.20;;;2.70;99.90;;;;;;5037642;28;20160;-82
2021/01/29 06:16:27;;;;;;;46.03;21.85;;;2.70;99.90;;;;;;5030952;28;20381;-82
2021/01/29 06:19:12;;;;;;;42.30;20.15;;;2.70;99.90;;;;;;5039585;28;20037;-82
2021/01/29 06:22:11;;;;;;;33.35;17.42;;;2.70;99.90;;;;;;5048500;28;20501;-82
2021/01/29 06:24:49;;;;;;;33.05;17.40;;;2.70;99.90;;;;;;5036659;28;20128;-81
2021/01/29 06:27:36;;;;;;;38.00;20.45;;;2.70;99.90;;;;;;5048778;28;20036;-82
2021/01/29 06:30:35;;;;;;;38.00;19.33;;;2.70;99.90;;;;;;5043709;28;20045;-82
2021/01/29 06:33:13;;;;;;;40.15;20.17;;;2.70;99.90;;;;;;5043985;28;20076;-81
2021/01/29 06:35:53;;;;;;;40.20;19.30;;;2.70;99.90;;;;;;5043803;28;20191;-82
2021/01/29 06:38:50;;;;;;;38.00;20.23;;;2.70;99.90;;;;;;5040902;28;20437;-82
2021/01/29 06:41:57;;;;;;;41.38;18.88;;;2.60;99.90;;;;;;5046205;28;20436;-82
2021/01/29 06:45:11;;;;;;;41.25;19.60;;;2.70;99.90;;;;;;4960645;28;20042;-82
2021/01/29 06:47:50;;;;;;;35.33;18.50;;;2.60;99.90;;;;;;4926355;29;20056;-82
2021/01/29 06:50:38;;;;;;;33.63;17.75;;;2.60;99.90;;;;;;4926227;29;20048;-82
2021/01/29 06:53:38;;;;;;;44.45;20.77;;;2.60;99.90;;;;;;4908274;29;20077;-82
2021/01/29 06:56:20;;;;;;;42.03;20.42;;;2.60;99.90;;;;;;4912336;29;20471;-82
2021/01/29 06:58:58;;;;;;;38.70;18.55;;;2.60;99.90;;;;;;4909315;29;20048;-82
2021/01/29 07:01:42;;;;;;;37.70;19.40;;;2.60;99.90;;;;;;4928976;29;20134;-82
2021/01/29 07:04:23;;;;;;;37.08;17.80;;;2.60;99.90;;;;;;4912182;29;20173;-81
2021/01/29 07:07:33;;;;;;;32.83;16.63;;;2.60;99.90;;;;;;4918105;29;20176;-82
2021/01/29 07:10:17;;;;;;;45.45;21.17;;;2.60;99.90;;;;;;4909493;29;20111;-82
2021/01/29 07:13:03;;;;;;;49.72;21.42;;;2.50;99.90;;;;;;4913856;29;20043;-81
2021/01/29 07:16:05;;;;;;;40.10;19.30;;;2.60;99.90;;;;;;4918495;29;20056;-82
2021/01/29 07:18:41;;;;;;;40.70;19.55;;;2.60;99.90;;;;;;4926927;29;20043;-82
2021/01/29 07:21:35;;;;;;;50.33;20.55;;;2.60;99.90;;;;;;4936957;28;20075;-81
2021/01/29 07:24:38;;;;;;;30.60;15.65;;;2.60;99.90;;;;;;5012745;28;20088;-82
2021/01/29 07:27:09;;;;;;;34.85;18.73;;;2.60;99.90;;;;;;5037115;28;20761;-82
2021/01/29 07:30:17;;;;;;;35.13;18.45;;;2.60;99.90;;;;;;5043248;28;20047;-81
2021/01/29 07:32:57;;;;;;;35.75;18.33;;;2.60;99.90;;;;;;5027845;28;20136;-80
2021/01/29 07:35:50;;;;;;;44.53;19.85;;;2.60;99.90;;;;;;5006283;28;20048;-81
2021/01/29 07:38:34;;;;;;;34.47;19.58;;;2.60;99.90;;;;;;5045129;28;20041;-81
2021/01/29 07:41:12;;;;;;;33.47;18.27;;;2.60;99.90;;;;;;5042004;28;20382;-81
2021/01/29 07:44:19;;;;;;;38.63;19.33;;;2.60;99.90;;;;;;5039297;28;20118;-81
2021/01/29 07:47:11;;;;;;;37.92;19.48;;;2.60;99.90;;;;;;4960237;28;20050;-81
2021/01/29 07:50:04;;;;;;;40.97;19.73;;;2.60;99.90;;;;;;4970438;28;20499;-81
2021/01/29 07:52:59;;;;;;;33.35;18.75;;;2.60;99.90;;;;;;4964525;28;20089;-81
2021/01/29 07:55:30;;;;;;;33.77;19.07;;;2.60;99.90;;;;;;4966568;28;20074;-81
2021/01/29 07:58:06;;;;;;;39.50;18.02;;;2.60;99.90;;;;;;4960251;28;20059;-80
2021/01/29 08:00:59;;;;;;;35.10;18.05;;;2.60;99.90;;;;;;4976885;28;20062;-81
2021/01/29 08:03:48;;;;;;;36.83;19.27;;;2.60;99.90;;;;;;4967217;28;20174;-80
2021/01/29 08:06:38;;;;;;;37.95;19.30;;;2.60;99.90;;;;;;4977756;28;20038;-80
2021/01/29 08:09:22;;;;;;;34.47;18.52;;;2.60;99.90;;;;;;4978299;28;20428;-80
2021/01/29 08:11:56;;;;;;;33.05;17.25;;;2.60;99.90;;;;;;4967196;28;20046;-80
2021/01/29 08:14:49;;;;;;;33.95;17.42;;;2.70;99.90;;;;;;4974689;28;20047;-80
2021/01/29 08:17:51;;;;;;;40.00;20.45;;;2.70;99.90;;;;;;4954650;28;20046;-80
2021/01/29 08:20:37;;;;;;;43.58;19.30;;;2.70;99.90;;;;;;4958669;28;20073;-80
2021/01/29 08:23:11;;;;;;;45.25;20.63;;;2.70;99.90;;;;;;4991832;28;20416;-81
2021/01/29 08:26:02;;;;;;;38.35;18.98;;;2.70;99.90;;;;;;5048939;28;20053;-81
2021/01/29 08:29:06;;;;;;;39.17;18.77;;;2.70;99.90;;;;;;5027703;28;20493;-80
2021/01/29 08:31:53;;;;;;;34.08;17.10;;;2.80;99.90;;;;;;5051751;28;20045;-80
2021/01/29 08:35:01;;;;;;;39.72;18.23;;;2.80;99.90;;;;;;5044292;28;20134;-81
2021/01/29 08:37:57;;;;;;;35.08;17.92;;;2.70;99.90;;;;;;5033862;28;20052;-81
2021/01/29 08:40:48;;;;;;;31.17;16.65;;;2.80;99.90;;;;;;5054751;28;20041;-81
2021/01/29 08:43:58;;;;;;;37.08;16.77;;;2.80;99.90;;;;;;5044733;28;20047;-80
2021/01/29 08:46:47;;;;;;;30.05;16.10;;;2.80;99.90;;;;;;5007768;28;20034;-80
2021/01/29 08:49:45;;;;;;;39.22;18.27;;;2.80;99.90;;;;;;5001527;28;20116;-80
2021/01/29 08:52:55;;;;;;;35.17;17.58;;;2.80;99.90;;;;;;4992767;28;20046;-81
2021/01/29 08:55:48;;;;;;;34.22;18.25;;;2.90;99.90;;;;;;4987914;28;20057;-81
2021/01/29 08:58:34;;;;;;;31.63;17.30;;;2.90;99.90;;;;;;4982262;28;20062;-81
2021/01/29 09:01:24;;;;;;;31.08;16.33;;;2.90;99.90;;;;;;4992212;28;20141;-81
2021/01/29 09:04:05;;;;;;;27.08;15.38;;;2.90;99.90;;;;;;4987642;28;20356;-81
2021/01/29 09:06:40;;;;;;;27.02;14.98;;;3.00;99.90;;;;;;4996326;28;20483;-81
2021/01/29 09:09:09;;;;;;;28.15;15.88;;;3.00;99.90;;;;;;5005808;28;20042;-81
2021/01/29 09:11:50;;;;;;;33.50;16.90;;;3.00;99.90;;;;;;4998450;28;20453;-80
2021/01/29 09:14:38;;;;;;;32.58;16.98;;;3.00;99.90;;;;;;5007024;28;20053;-81
2021/01/29 09:17:12;;;;;;;31.40;15.77;;;3.00;99.90;;;;;;5006328;28;20061;-81
2021/01/29 09:19:42;;;;;;;51.53;18.90;;;3.10;99.90;;;;;;5050836;28;20074;-81
2021/01/29 09:22:20;;;;;;;54.30;18.80;;;3.10;99.90;;;;;;5044478;28;20045;-81
2021/01/29 09:25:10;;;;;;;37.45;16.52;;;3.10;99.90;;;;;;5048818;28;20396;-81
2021/01/29 09:27:47;;;;;;;30.25;15.55;;;3.10;99.90;;;;;;5035459;28;20060;-81
2021/01/29 09:30:31;;;;;;;35.13;15.68;;;3.10;99.90;;;;;;5033973;28;20052;-80
2021/01/29 09:32:56;;;;;;;33.20;15.60;;;3.20;99.90;;;;;;5036254;28;20041;-81
2021/01/29 09:35:46;;;;;;;38.20;16.42;;;3.20;99.90;;;;;;5055690;28;20113;-81
2021/01/29 09:38:16;;;;;;;35.65;16.63;;;3.20;99.90;;;;;;5047116;28;20044;-81
2021/01/29 09:40:56;;;;;;;38.22;15.70;;;3.20;99.90;;;;;;5034784;28;20047;-81
2021/01/29 09:43:43;;;;;;;38.45;16.75;;;3.20;99.90;;;;;;5034854;28;20060;-81
2021/01/29 09:46:10;;;;;;;45.28;17.40;;;3.20;99.90;;;;;;5052499;28;20037;-82
2021/01/29 09:48:39;;;;;;;46.58;18.38;;;3.20;99.90;;;;;;5030277;28;20045;-82
2021/01/29 09:51:29;;;;;;;46.67;17.10;;;3.30;99.90;;;;;;5029264;28;20069;-81
2021/01/29 09:54:19;;;;;;;39.92;17.45;;;3.30;99.90;;;;;;5048227;28;20052;-82
2021/01/29 09:56:52;;;;;;;38.60;16.63;;;3.30;99.90;;;;;;5041747;28;20046;-82
2021/01/29 09:59:51;;;;;;;40.90;17.27;;;3.30;99.90;;;;;;5038735;28;20158;-81
2021/01/29 10:02:34;;;;;;;42.17;16.33;;;3.30;99.90;;;;;;5040890;28;20462;-81
2021/01/29 10:05:18;;;;;;;56.90;20.13;;;3.40;99.90;;;;;;5047081;28;20152;-81
2021/01/29 10:08:15;;;;;;;24.52;13.70;;;3.40;99.90;;;;;;5041192;28;20073;-82
2021/01/29 10:10:57;;;;;;;36.65;15.25;;;3.40;99.90;;;;;;5032532;28;20054;-82
2021/01/29 10:13:40;;;;;;;56.67;18.42;;;3.50;99.90;;;;;;5023697;28;20045;-81
2021/01/29 10:16:42;;;;;;;44.17;18.02;;;3.50;99.90;;;;;;5053207;28;20143;-82
2021/01/29 10:19:42;;;;;;;82.80;19.98;;;3.50;99.90;;;;;;5040094;28;20040;-83
2021/01/29 10:22:18;;;;;;;54.90;18.58;;;3.60;99.90;;;;;;5032902;28;20073;-83
2021/01/29 10:24:55;;;;;;;65.25;18.60;;;3.60;99.90;;;;;;5034269;28;20065;-83
2021/01/29 10:27:55;;;;;;;55.03;19.48;;;3.60;99.90;;;;;;5019847;28;20199;-83
2021/01/29 10:30:44;;;;;;;43.70;16.55;;;3.70;99.90;;;;;;5031892;28;20441;-83
2021/01/29 10:33:23;;;;;;;70.15;19.80;;;3.70;99.90;;;;;;5010006;28;20050;-83
2021/01/29 10:35:58;;;;;;;74.07;20.23;;;3.70;99.90;;;;;;5035621;28;20521;-83
2021/01/29 10:38:26;;;;;;;;;;;3.80;99.90;;;;;;5030730;28;20060;-82
2021/01/29 10:41:09;;;;;;;79.75;19.63;;;3.80;99.90;;;;;;5019342;28;20008;-84
2021/01/29 10:44:07;;;;;;;113.40;23.25;;;3.80;99.90;;;;;;5027052;28;20052;-83
2021/01/29 10:46:51;;;;;;;92.18;22.10;;;3.80;99.90;;;;;;5019587;28;20061;-83
2021/01/29 10:49:44;;;;;;;80.90;20.83;;;3.90;99.90;;;;;;5011416;28;20602;-83
2021/01/29 10:52:43;;;;;;;102.85;24.17;;;4.00;99.90;;;;;;5016844;28;20625;-83
2021/01/29 10:55:29;;;;;;;92.05;25.02;;;4.00;99.90;;;;;;5010312;28;20050;-83
2021/01/29 10:58:02;;;;;;;99.15;24.17;;;4.10;99.90;;;;;;5038861;28;20103;-83
2021/01/29 11:00:31;;;;;;;56.40;21.08;;;4.10;99.90;;;;;;5043847;28;20083;-83
2021/01/29 11:03:09;;;;;;;68.07;24.48;;;4.10;99.90;;;;;;5038022;28;20049;-83
2021/01/29 11:05:40;;;;;;;90.95;25.60;;;4.40;99.90;;;;;;5046262;28;20049;-82
2021/01/29 11:08:31;;;;;;;90.60;23.35;;;4.50;99.90;;;;;;5028169;28;20089;-82
2021/01/29 11:11:17;;;;;;;74.97;22.50;;;4.70;99.90;;;;;;5044515;28;20104;-83
2021/01/29 11:14:18;;;;;;;58.63;18.73;;;4.80;99.90;;;;;;5054044;28;20045;-82
2021/01/29 11:16:47;;;;;;;58.75;15.07;;;5.10;99.90;;;;;;5046757;28;20088;-82
2021/01/29 11:19:24;;;;;;;58.40;14.07;;;5.60;99.90;;;;;;5032687;28;20057;-82
2021/01/29 11:21:55;;;;;;;57.67;14.13;;;6.20;99.90;;;;;;5029312;28;20060;-82
2021/01/29 11:24:38;;;;;;;46.28;11.38;;;6.50;99.90;;;;;;5049362;28;20117;-82
2021/01/29 11:27:16;;;;;;;51.78;11.48;;;6.70;99.90;;;;;;5042475;28;20158;-82
2021/01/29 11:30:23;;;;;;;55.17;12.02;;;6.80;99.90;;;;;;5048906;28;20941;-82
2021/01/29 11:32:59;;;;;;;53.53;10.50;;;7.00;99.90;;;;;;5041993;28;20064;-82
2021/01/29 11:35:43;;;;;;;50.20;9.85;;;7.10;99.90;;;;;;5026656;28;20045;-81
2021/01/29 11:38:34;;;;;;;42.00;9.05;;;7.10;99.90;;;;;;5053780;28;20060;-82
2021/01/29 11:41:14;;;;;;;44.72;8.32;;;7.10;99.90;;;;;;5043688;28;20037;-81
2021/01/29 11:43:47;;;;;;;48.95;9.90;;;7.20;99.90;;;;;;5047713;28;20033;-82
2021/01/29 11:46:26;;;;;;;36.05;7.70;;;7.40;99.90;;;;;;5023959;28;20114;-82
2021/01/29 11:49:01;;;;;;;44.58;8.10;;;7.30;99.90;;;;;;5048745;28;20045;-82
2021/01/29 11:51:36;;;;;;;42.10;7.18;;;7.40;99.90;;;;;;5039118;28;20065;-82
2021/01/29 11:54:24;;;;;;;43.42;7.20;;;7.40;99.90;;;;;;5052744;28;20487;-82
2021/01/29 11:57:04;;;;;;;46.95;6.63;;;7.40;99.90;;;;;;5045613;28;20152;-82
2021/01/29 12:00:11;;;;;;;45.97;8.77;;;7.50;99.90;;;;;;5050472;28;20037;-82
2021/01/29 12:02:48;;;;;;;35.30;6.93;;;7.50;99.90;;;;;;5047273;28;20049;-82
2021/01/29 12:05:25;;;;;;;34.85;6.80;;;7.50;99.90;;;;;;5050836;28;20056;-82
2021/01/29 12:08:06;;;;;;;39.85;7.00;;;7.60;99.90;;;;;;5048588;28;20061;-82
2021/01/29 12:10:56;;;;;;;35.38;5.72;;;7.60;99.90;;;;;;5049136;28;20041;-82
2021/01/29 12:13:31;;;;;;;36.00;6.30;;;7.60;99.70;;;;;;5042691;28;20377;-83
2021/01/29 12:16:03;;;;;;;40.60;7.68;;;7.60;99.90;;;;;;5050334;28;20049;-83
2021/01/29 12:18:33;;;;;;;41.05;6.75;;;7.60;99.80;;;;;;5022321;28;20116;-82
2021/01/29 12:21:31;;;;;;;36.85;6.57;;;7.60;99.80;;;;;;5039848;28;20136;-82
2021/01/29 12:24:15;;;;;;;42.83;6.88;;;7.50;99.60;;;;;;5040698;28;20501;-82
2021/01/29 12:27:09;;;;;;;46.90;7.10;;;7.60;99.60;;;;;;5053426;28;20745;-82
2021/01/29 12:29:44;;;;;;;47.73;7.37;;;7.50;99.60;;;;;;5046839;28;20060;-83
2021/01/29 12:32:22;;;;;;;45.72;6.45;;;7.50;99.90;;;;;;5029575;28;20083;-83
2021/01/29 12:35:16;;;;;;;54.92;8.50;;;7.50;99.90;;;;;;5048641;28;20045;-82
2021/01/29 12:38:01;;;;;;;47.17;7.60;;;7.40;99.90;;;;;;5045676;28;20473;-83
2021/01/29 12:40:51;;;;;;;45.38;7.00;;;7.40;99.90;;;;;;5048223;28;20045;-82
2021/01/29 12:43:34;;;;;;;42.78;6.25;;;7.40;99.90;;;;;;5021747;28;20161;-82
2021/01/29 12:46:31;;;;;;;53.28;7.15;;;7.40;99.90;;;;;;5030404;28;20057;-82
2021/01/29 12:49:13;;;;;;;42.85;7.00;;;7.40;99.90;;;;;;5033632;28;20191;-82
2021/01/29 12:51:51;;;;;;;41.20;6.60;;;7.40;99.90;;;;;;5011856;28;20384;-82
2021/01/29 12:54:46;;;;;;;43.78;6.40;;;7.40;99.90;;;;;;5002763;28;20046;-82
2021/01/29 12:57:20;;;;;;;40.90;7.15;;;7.40;99.90;;;;;;5011300;28;20110;-82
2021/01/29 12:59:59;;;;;;;41.47;6.90;;;7.40;99.90;;;;;;5006509;28;20052;-82
2021/01/29 13:02:44;;;;;;;46.78;6.20;;;7.40;99.90;;;;;;5012139;28;20299;-82
2021/01/29 13:05:27;;;;;;;54.65;7.93;;;7.40;99.90;;;;;;5000313;28;20061;-82
2021/01/29 13:08:07;;;;;;;47.90;7.20;;;7.40;99.90;;;;;;5022470;28;20065;-82
2021/01/29 13:11:06;;;;;;;50.00;7.07;;;7.40;99.90;;;;;;5027924;28;20063;-82
2021/01/29 13:13:58;;;;;;;39.92;7.03;;;7.40;99.90;;;;;;4954020;28;20047;-82
2021/01/29 13:16:56;;;;;;;52.17;7.72;;;7.40;99.90;;;;;;4952291;28;20138;-82
2021/01/29 13:19:31;;;;;;;42.97;8.02;;;7.50;99.90;;;;;;4918149;29;20051;-82
2021/01/29 13:22:00;;;;;;;46.45;9.80;;;7.50;99.90;;;;;;4939824;29;20048;-83
2021/01/29 13:24:39;;;;;;;36.47;7.32;;;7.60;99.90;;;;;;4934099;29;20054;-82
2021/01/29 13:27:11;;;;;;;34.47;7.30;;;7.60;99.90;;;;;;4938437;29;20182;-82
2021/01/29 13:29:37;;;;;;;48.30;6.35;;;7.60;99.90;;;;;;4900007;29;20052;-82
2021/01/29 13:32:23;;;;;;;32.83;5.72;;;7.50;99.90;;;;;;4923740;29;20082;-82
2021/01/29 13:34:50;;;;;;;36.00;7.60;;;7.60;99.90;;;;;;4915174;29;20480;-82
2021/01/29 13:37:29;;;;;;;40.67;7.85;;;7.60;99.90;;;;;;4905571;29;20073;-82
2021/01/29 13:40:27;;;;;;;45.33;8.75;;;7.60;99.90;;;;;;4938103;29;20086;-82
2021/01/29 13:42:55;;;;;;;41.42;7.65;;;7.60;99.90;;;;;;4911224;29;20582;-82
2021/01/29 13:45:31;;;;;;;48.70;7.78;;;7.50;99.90;;;;;;4918998;29;20118;-82
2021/01/29 13:48:07;;;;;;;49.15;9.00;;;7.60;99.90;;;;;;4919121;29;20051;-82
2021/01/29 13:50:40;;;;;;;41.58;9.07;;;7.60;99.90;;;;;;4969134;28;20465;-82
2021/01/29 13:53:15;;;;;;;52.47;8.38;;;7.60;99.90;;;;;;4985622;28;20584;-83
2021/01/29 13:55:56;;;;;;;43.58;7.68;;;7.60;99.90;;;;;;4979937;28;20136;-84
2021/01/29 14:25:46;;;;;;;38.10;7.60;;;7.60;99.90;;;;;;4818436;29;20055;-84